Time;durP1;ratioP1;P1;durP2;ratioP2;P2;SDS_P1;SDS_P2;PMS_P1;PMS_P2;Temp;Humidity;BMP_temperature;BMP_pressure;BME280_temperature;BME280_humidity;BME280_pressure;Samples;Min_cycle;Max_cycle;Signal;HPM_P1;HPM_P2
2021/03/11 00:00:40;;;;;;;15.87;12.70;;;;;;;;;;5029497;28;20296;-69
2021/03/11 00:03:07;;;;;;;14.10;11.97;;;;;;;;;;5029195;28;20188;-69
2021/03/11 00:05:33;;;;;;;13.40;11.63;;;;;;;;;;5032178;28;20213;-70
2021/03/11 00:07:59;;;;;;;14.17;11.50;;;;;;;;;;5023584;28;20218;-70
2021/03/11 00:10:25;;;;;;;14.33;12.07;;;;;;;;;;5024075;28;20180;-69
2021/03/11 00:12:51;;;;;;;17.60;12.33;;;;;;;;;;5016821;28;20209;-69
2021/03/11 00:15:18;;;;;;;14.20;12.17;;;;;;;;;;5019080;28;20260;-70
2021/03/11 00:17:45;;;;;;;17.07;11.77;;;;;;;;;;5016764;28;20201;-69
2021/03/11 00:20:12;;;;;;;14.10;12.20;;;;;;;;;;5025224;28;20259;-70
2021/03/11 00:22:38;;;;;;;16.23;12.33;;;;;;;;;;5013674;28;20210;-70
2021/03/11 00:25:14;;;;;;;14.70;10.83;;;;;;;;;;5020938;28;20625;-69
2021/03/11 00:27:40;;;;;;;15.10;12.60;;;;;;;;;;5021314;28;20214;-69
2021/03/11 00:30:08;;;;;;;15.67;13.03;;;;;;;;;;5023999;28;20548;-69
2021/03/11 00:32:34;;;;;;;13.67;11.73;;;;;;;;;;5020729;28;20192;-70
2021/03/11 00:35:00;;;;;;;13.00;11.67;;;;;;;;;;5024224;28;20711;-70
2021/03/11 00:37:26;;;;;;;13.30;11.90;;;;;;;;;;5024914;28;20186;-69
2021/03/11 00:39:52;;;;;;;15.10;11.60;;;;;;;;;;5013548;28;20196;-70
2021/03/11 00:42:18;;;;;;;13.70;11.70;;;;;;;;;;5023241;28;20191;-70
2021/03/11 00:44:44;;;;;;;12.77;11.47;;;;;;;;;;5023078;28;20255;-70
2021/03/11 00:47:10;;;;;;;13.70;11.40;;;;;;;;;;5022432;28;20287;-70
2021/03/11 00:49:36;;;;;;;13.47;12.00;;;;;;;;;;5013192;28;20204;-69
2021/03/11 00:52:03;;;;;;;17.17;11.67;;;;;;;;;;5014975;28;20190;-70
2021/03/11 00:54:29;;;;;;;13.27;11.50;;;;;;;;;;5015757;28;20187;-69
2021/03/11 00:56:55;;;;;;;13.40;10.60;;;;;;;;;;5021828;28;20203;-69
2021/03/11 00:59:21;;;;;;;11.40;10.30;;;;;;;;;;5021903;28;20217;-69
2021/03/11 01:01:47;;;;;;;13.00;10.83;;;;;;;;;;5017279;28;20192;-70
2021/03/11 01:04:13;;;;;;;11.40;10.20;;;;;;;;;;5016100;28;20269;-69
2021/03/11 01:06:39;;;;;;;13.00;11.53;;;;;;;;;;5018864;28;20850;-69
2021/03/11 01:09:06;;;;;;;12.67;10.63;;;;;;;;;;5014801;28;20296;-69
2021/03/11 01:11:32;;;;;;;17.13;11.47;;;;;;;;;;5024535;28;20189;-69
2021/03/11 01:13:58;;;;;;;12.20;10.90;;;;;;;;;;5026659;28;20188;-69
2021/03/11 01:16:24;;;;;;;13.37;10.83;;;;;;;;;;5024529;28;20684;-71
2021/03/11 01:18:50;;;;;;;12.63;11.10;;;;;;;;;;5024582;28;20251;-70
2021/03/11 01:21:16;;;;;;;13.57;10.70;;;;;;;;;;5022718;28;20179;-70
2021/03/11 01:23:43;;;;;;;12.50;10.23;;;;;;;;;;5028097;28;20204;-70
2021/03/11 01:26:09;;;;;;;11.60;10.10;;;;;;;;;;5020122;28;20646;-70
2021/03/11 01:28:34;;;;;;;11.90;10.33;;;;;;;;;;5028621;28;20286;-70
2021/03/11 01:31:00;;;;;;;13.07;10.90;;;;;;;;;;5024753;28;20188;-70
2021/03/11 01:33:26;;;;;;;11.77;10.30;;;;;;;;;;5021417;28;20187;-70
2021/03/11 01:35:52;;;;;;;12.67;9.33;;;;;;;;;;5019264;28;20669;-71
2021/03/11 01:38:19;;;;;;;19.30;10.47;;;;;;;;;;5024382;28;20187;-70
2021/03/11 01:40:45;;;;;;;12.47;10.23;;;;;;;;;;5011058;28;20276;-70
2021/03/11 01:43:11;;;;;;;11.87;9.47;;;;;;;;;;5028202;28;20839;-70
2021/03/11 01:45:37;;;;;;;10.97;9.47;;;;;;;;;;5029155;28;20204;-70
2021/03/11 01:48:03;;;;;;;10.53;9.37;;;;;;;;;;5020390;28;20205;-70
2021/03/11 01:50:29;;;;;;;9.67;8.73;;;;;;;;;;5024099;28;20721;-70
2021/03/11 01:52:55;;;;;;;11.00;9.30;;;;;;;;;;5022335;28;20589;-70
2021/03/11 01:55:21;;;;;;;11.00;9.80;;;;;;;;;;5026478;28;20838;-70
2021/03/11 01:57:47;;;;;;;10.80;8.97;;;;;;;;;;5026571;28;20195;-70
2021/03/11 02:00:14;;;;;;;10.87;9.70;;;;;;;;;;5027437;28;20191;-70
2021/03/11 02:02:44;;;;;;;10.37;9.27;;;;;;;;;;5015066;28;20604;-70
2021/03/11 02:05:11;;;;;;;12.47;9.97;;;;;;;;;;5013279;28;20217;-70
2021/03/11 02:07:37;;;;;;;11.13;9.90;;;;;;;;;;5015707;28;20215;-70
2021/03/11 02:10:03;;;;;;;11.40;10.00;;;;;;;;;;5023820;28;20187;-70
2021/03/11 02:12:32;;;;;;;13.03;10.60;;;;;;;;;;5016690;28;20186;-70
2021/03/11 02:15:05;;;;;;;13.57;10.87;;;;;;;;;;5017681;28;20221;-69
2021/03/11 02:17:35;;;;;;;15.87;10.70;;;;;;;;;;5016232;28;20261;-71
2021/03/11 02:20:04;;;;;;;12.30;10.77;;;;;;;;;;5018578;28;20212;-71
2021/03/11 02:23:00;;;;;;;13.53;10.53;;;;;;;;;;5011659;28;20203;-70
2021/03/11 02:25:31;;;;;;;10.83;9.73;;;;;;;;;;5017315;28;20280;-70
2021/03/11 02:28:01;;;;;;;13.57;10.27;;;;;;;;;;5018336;28;20555;-69
2021/03/11 02:30:27;;;;;;;13.73;10.67;;;;;;;;;;5015319;28;20208;-70
2021/03/11 02:32:54;;;;;;;12.67;10.23;;;;;;;;;;5022415;28;20244;-70
2021/03/11 02:35:21;;;;;;;13.17;10.97;;;;;;;;;;5021906;28;20368;-70
2021/03/11 02:37:50;;;;;;;12.57;10.60;;;;;;;;;;5026273;28;20192;-70
2021/03/11 02:40:22;;;;;;;14.30;10.43;;;;;;;;;;5016187;28;20196;-70
2021/03/11 02:42:48;;;;;;;14.20;11.50;;;;;;;;;;5016358;28;20667;-70
2021/03/11 02:45:16;;;;;;;14.13;10.87;;;;;;;;;;5016482;28;20589;-70
2021/03/11 02:47:43;;;;;;;14.07;11.27;;;;;;;;;;5013448;28;20565;-70
2021/03/11 02:50:10;;;;;;;15.20;12.43;;;;;;;;;;5006853;28;20208;-70
2021/03/11 02:52:36;;;;;;;15.17;11.67;;;;;;;;;;5023150;28;20266;-69
2021/03/11 02:55:03;;;;;;;13.23;11.60;;;;;;;;;;5024702;28;20186;-70
2021/03/11 02:57:31;;;;;;;14.80;11.80;;;;;;;;;;5021916;28;20564;-70
2021/03/11 02:59:58;;;;;;;11.97;10.77;;;;;;;;;;5016735;28;20187;-70
2021/03/11 03:02:25;;;;;;;14.00;11.40;;;;;;;;;;5018895;28;20211;-70
2021/03/11 03:04:53;;;;;;;14.37;11.07;;;;;;;;;;5026317;28;20255;-70
2021/03/11 03:07:19;;;;;;;13.27;11.30;;;;;;;;;;5031404;28;20235;-70
2021/03/11 03:09:50;;;;;;;13.00;11.00;;;;;;;;;;5019885;28;20261;-70
2021/03/11 03:12:16;;;;;;;11.77;9.83;;;;;;;;;;5031625;28;20188;-70
2021/03/11 03:14:46;;;;;;;11.67;9.50;;;;;;;;;;5018738;28;20217;-70
2021/03/11 03:17:12;;;;;;;12.30;8.80;;;;;;;;;;5026240;28;20571;-70
2021/03/11 03:19:40;;;;;;;13.60;8.37;;;;;;;;;;5024573;28;20200;-70
2021/03/11 03:22:06;;;;;;;9.37;8.37;;;;;;;;;;5027952;28;20564;-70
2021/03/11 03:24:33;;;;;;;9.37;7.43;;;;;;;;;;5030080;28;20824;-70
2021/03/11 03:26:59;;;;;;;8.67;7.77;;;;;;;;;;5021655;28;20642;-70
2021/03/11 03:29:25;;;;;;;8.63;7.73;;;;;;;;;;5020930;28;20207;-70
2021/03/11 03:31:52;;;;;;;8.97;7.30;;;;;;;;;;5025792;28;20196;-70
2021/03/11 03:34:18;;;;;;;9.50;7.63;;;;;;;;;;5028362;28;20199;-70
2021/03/11 03:36:44;;;;;;;10.13;7.50;;;;;;;;;;5032368;28;20208;-70
2021/03/11 03:39:10;;;;;;;8.50;7.33;;;;;;;;;;5034665;28;20204;-70
2021/03/11 03:41:38;;;;;;;10.10;7.13;;;;;;;;;;5021354;28;20239;-70
2021/03/11 03:44:05;;;;;;;7.90;6.60;;;;;;;;;;5035290;28;21000;-70
2021/03/11 03:46:31;;;;;;;8.17;7.03;;;;;;;;;;5024564;28;20716;-70
2021/03/11 03:48:58;;;;;;;8.93;6.63;;;;;;;;;;5024966;28;20228;-70
2021/03/11 03:51:28;;;;;;;7.40;6.53;;;;;;;;;;5013787;28;20208;-70
2021/03/11 03:54:06;;;;;;;8.00;6.13;;;;;;;;;;5020426;28;20559;-70
2021/03/11 03:56:35;;;;;;;7.37;5.93;;;;;;;;;;5025574;28;20258;-70
2021/03/11 03:59:13;;;;;;;6.90;5.67;;;;;;;;;;5022044;28;20192;-70
2021/03/11 04:01:40;;;;;;;6.30;5.23;;;;;;;;;;5019695;28;20204;-70
2021/03/11 04:04:07;;;;;;;8.30;5.27;;;;;;;;;;5017851;28;20216;-70
2021/03/11 04:06:34;;;;;;;8.07;5.50;;;;;;;;;;5032053;28;20297;-70
2021/03/11 04:09:02;;;;;;;8.20;5.37;;;;;;;;;;5017337;28;20201;-70
2021/03/11 04:11:28;;;;;;;8.17;4.80;;;;;;;;;;5012036;28;20270;-70
2021/03/11 04:13:54;;;;;;;6.43;4.70;;;;;;;;;;5022461;28;20609;-70
2021/03/11 04:16:21;;;;;;;5.20;4.70;;;;;;;;;;5019272;28;20213;-70
2021/03/11 04:18:48;;;;;;;4.30;3.90;;;;;;;;;;5021790;28;20662;-70
2021/03/11 04:21:14;;;;;;;4.50;4.10;;;;;;;;;;5015191;28;20707;-70
2021/03/11 04:23:41;;;;;;;7.23;4.33;;;;;;;;;;5021947;28;20553;-71
2021/03/11 04:26:07;;;;;;;7.30;4.73;;;;;;;;;;5035031;28;20212;-70
2021/03/11 04:28:33;;;;;;;5.80;4.60;;;;;;;;;;5024083;28;20212;-71
2021/03/11 04:31:00;;;;;;;9.77;4.37;;;;;;;;;;5022087;28;20187;-68
2021/03/11 04:33:26;;;;;;;5.93;3.83;;;;;;;;;;5025256;28;20199;-71
2021/03/11 04:35:53;;;;;;;4.73;3.90;;;;;;;;;;5025094;28;20211;-70
2021/03/11 04:38:19;;;;;;;9.03;3.63;;;;;;;;;;5027791;28;20199;-71
2021/03/11 04:40:45;;;;;;;5.43;3.73;;;;;;;;;;5023724;28;20249;-70
2021/03/11 04:43:12;;;;;;;7.00;3.47;;;;;;;;;;5021702;28;20176;-71
2021/03/11 04:45:39;;;;;;;5.13;3.40;;;;;;;;;;5022920;28;20219;-71
2021/03/11 04:48:06;;;;;;;4.07;3.47;;;;;;;;;;5024211;28;20224;-70
2021/03/11 04:50:33;;;;;;;4.60;3.37;;;;;;;;;;5017133;28;20202;-71
2021/03/11 04:52:59;;;;;;;3.77;3.40;;;;;;;;;;5025742;28;20626;-70
2021/03/11 04:55:26;;;;;;;5.40;3.60;;;;;;;;;;5032022;28;20291;-70
2021/03/11 04:57:53;;;;;;;5.33;3.50;;;;;;;;;;5026429;28;20208;-71
2021/03/11 05:00:19;;;;;;;4.47;3.50;;;;;;;;;;5017082;28;20184;-70
2021/03/11 05:02:47;;;;;;;6.70;3.20;;;;;;;;;;5017756;28;20215;-70
2021/03/11 05:05:14;;;;;;;3.97;3.30;;;;;;;;;;5020577;28;20181;-71
2021/03/11 05:07:40;;;;;;;3.67;3.13;;;;;;;;;;5018268;28;20280;-71
2021/03/11 05:10:06;;;;;;;4.03;3.47;;;;;;;;;;5021216;28;20185;-71
2021/03/11 05:12:32;;;;;;;5.73;3.80;;;;;;;;;;5019420;28;20255;-70
2021/03/11 05:14:58;;;;;;;4.57;3.70;;;;;;;;;;5022591;28;20288;-71
2021/03/11 05:17:25;;;;;;;6.00;3.53;;;;;;;;;;5021757;28;20542;-71
2021/03/11 05:19:51;;;;;;;5.57;3.90;;;;;;;;;;5024240;28;20267;-72
2021/03/11 05:22:17;;;;;;;4.03;3.60;;;;;;;;;;5019912;28;20207;-71
2021/03/11 05:24:43;;;;;;;5.30;4.00;;;;;;;;;;5017997;28;20184;-71
2021/03/11 05:27:09;;;;;;;4.47;4.00;;;;;;;;;;5018800;28;20209;-72
2021/03/11 05:29:35;;;;;;;4.23;3.33;;;;;;;;;;5023147;28;20202;-72
2021/03/11 05:32:01;;;;;;;3.50;3.07;;;;;;;;;;5025049;28;20222;-71
2021/03/11 05:34:27;;;;;;;3.23;3.03;;;;;;;;;;5030251;28;20249;-71
2021/03/11 05:36:54;;;;;;;5.10;3.37;;;;;;;;;;5021069;28;20207;-71
2021/03/11 05:39:20;;;;;;;4.60;3.40;;;;;;;;;;5026822;28;20192;-71
2021/03/11 05:41:46;;;;;;;3.73;3.10;;;;;;;;;;5024694;28;20721;-72
2021/03/11 05:44:12;;;;;;;5.17;3.80;;;;;;;;;;5019584;28;20561;-71
2021/03/11 05:46:39;;;;;;;7.17;3.30;;;;;;;;;;5021241;28;20200;-71
2021/03/11 05:49:06;;;;;;;3.97;3.63;;;;;;;;;;5018957;28;20700;-71
2021/03/11 05:51:32;;;;;;;5.53;3.97;;;;;;;;;;5014685;28;20207;-71
2021/03/11 05:53:59;;;;;;;6.37;3.50;;;;;;;;;;5020575;28;20235;-71
2021/03/11 05:56:25;;;;;;;4.10;3.80;;;;;;;;;;5027753;28;20207;-71
2021/03/11 05:58:54;;;;;;;4.17;3.73;;;;;;;;;;5018828;28;20270;-71
2021/03/11 06:01:21;;;;;;;4.93;3.77;;;;;;;;;;5019988;28;20265;-72
2021/03/11 06:03:49;;;;;;;4.53;3.60;;;;;;;;;;5020508;28;20181;-70
2021/03/11 06:11:28;;;;;;;5.57;3.60;;;;;;;;;;4998090;22;20342;-72
2021/03/11 06:13:54;;;;;;;5.30;3.10;;;;;;;;;;5025442;28;20540;-72
2021/03/11 06:16:23;;;;;;;3.87;3.53;;;;;;;;;;5012248;28;20275;-71
2021/03/11 06:18:50;;;;;;;4.37;3.50;;;;;;;;;;5012419;28;20211;-71
2021/03/11 06:21:17;;;;;;;3.50;3.20;;;;;;;;;;4994367;28;20201;-71
2021/03/11 06:23:43;;;;;;;3.70;3.40;;;;;;;;;;5010280;28;20728;-71
2021/03/11 06:26:11;;;;;;;5.03;3.40;;;;;;;;;;5009690;28;20264;-71
2021/03/11 06:28:47;;;;;;;4.90;3.83;;;;;;;;;;4994815;28;20553;-71
2021/03/11 06:31:25;;;;;;;3.83;3.30;;;;;;;;;;5006072;28;20220;-73
2021/03/11 06:33:52;;;;;;;4.90;3.13;;;;;;;;;;5010579;28;20179;-71
2021/03/11 06:36:19;;;;;;;3.57;3.13;;;;;;;;;;5015621;28;20642;-71
2021/03/11 06:38:45;;;;;;;3.90;3.20;;;;;;;;;;5009101;28;20275;-71
2021/03/11 06:41:11;;;;;;;3.83;3.30;;;;;;;;;;5012242;28;20212;-71
2021/03/11 06:43:53;;;;;;;5.13;3.37;;;;;;;;;;5009926;28;20190;-71
2021/03/11 06:46:20;;;;;;;5.63;3.27;;;;;;;;;;5012677;28;20277;-71
2021/03/11 06:48:48;;;;;;;4.33;3.00;;;;;;;;;;5014209;28;20207;-71
2021/03/11 06:51:18;;;;;;;3.30;3.00;;;;;;;;;;5014034;28;20281;-71
2021/03/11 06:53:57;;;;;;;4.80;3.10;;;;;;;;;;5006321;28;20264;-71
2021/03/11 06:56:23;;;;;;;3.70;2.87;;;;;;;;;;4993582;28;20263;-71
2021/03/11 06:58:57;;;;;;;2.90;2.70;;;;;;;;;;5010758;28;20181;-71
2021/03/11 07:01:23;;;;;;;3.87;2.67;;;;;;;;;;5011907;28;20208;-71
2021/03/11 07:03:49;;;;;;;3.07;2.60;;;;;;;;;;4990036;28;20209;-71
2021/03/11 07:06:26;;;;;;;3.87;2.97;;;;;;;;;;4990144;28;20196;-72
2021/03/11 07:08:52;;;;;;;3.97;3.10;;;;;;;;;;5007215;28;20227;-73
2021/03/11 07:11:19;;;;;;;3.60;2.60;;;;;;;;;;5011015;28;20291;-73
2021/03/11 07:13:45;;;;;;;3.47;2.80;;;;;;;;;;5008344;28;20200;-73
2021/03/11 07:16:14;;;;;;;4.90;2.67;;;;;;;;;;5011516;28;20721;-73
2021/03/11 07:18:41;;;;;;;3.40;3.10;;;;;;;;;;5013440;28;20190;-73
2021/03/11 07:21:07;;;;;;;2.80;2.50;;;;;;;;;;5013782;28;20223;-71
2021/03/11 07:23:43;;;;;;;3.77;2.60;;;;;;;;;;5006430;28;20209;-71
2021/03/11 07:26:09;;;;;;;5.80;3.37;;;;;;;;;;5000446;28;20192;-73
2021/03/11 07:28:35;;;;;;;4.00;2.70;;;;;;;;;;5009432;28;20205;-73
2021/03/11 07:31:03;;;;;;;3.37;3.07;;;;;;;;;;5011197;28;20572;-73
2021/03/11 07:33:30;;;;;;;2.77;2.57;;;;;;;;;;4992261;28;20181;-73
2021/03/11 07:35:57;;;;;;;4.20;2.80;;;;;;;;;;5009942;28;20223;-72
2021/03/11 07:38:25;;;;;;;3.20;2.50;;;;;;;;;;5011472;28;20202;-72
2021/03/11 07:40:52;;;;;;;4.67;3.00;;;;;;;;;;5012985;28;20602;-70
2021/03/11 07:43:18;;;;;;;3.53;2.53;;;;;;;;;;5017032;28;20700;-70
2021/03/11 07:45:44;;;;;;;3.00;2.57;;;;;;;;;;5010067;28;20199;-71
2021/03/11 07:48:11;;;;;;;5.13;3.03;;;;;;;;;;5012860;28;20213;-70
2021/03/11 07:50:37;;;;;;;4.00;2.90;;;;;;;;;;5006699;28;20210;-70
2021/03/11 07:53:05;;;;;;;4.13;3.53;;;;;;;;;;4994639;28;20189;-71
2021/03/11 07:55:31;;;;;;;4.87;3.00;;;;;;;;;;5010773;28;20173;-71
2021/03/11 07:57:58;;;;;;;4.57;3.50;;;;;;;;;;5011146;28;20250;-71
2021/03/11 08:00:26;;;;;;;4.20;3.00;;;;;;;;;;5013638;28;20245;-71
2021/03/11 08:02:57;;;;;;;3.40;3.10;;;;;;;;;;5012730;28;20188;-72
2021/03/11 08:05:27;;;;;;;2.20;2.10;;;;;;;;;;5012929;28;20181;-71
2021/03/11 08:08:12;;;;;;;4.87;2.70;;;;;;;;;;5012614;28;20271;-71
2021/03/11 08:10:42;;;;;;;4.17;2.80;;;;;;;;;;5013596;28;20227;-71
2021/03/11 08:13:27;;;;;;;3.33;2.40;;;;;;;;;;5020722;28;20196;-71
2021/03/11 08:15:53;;;;;;;4.37;2.77;;;;;;;;;;5020795;28;20184;-70
2021/03/11 08:18:35;;;;;;;3.57;2.67;;;;;;;;;;5011738;28;20219;-70
2021/03/11 08:21:01;;;;;;;4.90;2.37;;;;;;;;;;5015203;28;20212;-73
2021/03/11 08:23:28;;;;;;;4.27;2.50;;;;;;;;;;4997454;28;20279;-69
2021/03/11 08:25:54;;;;;;;4.33;2.60;;;;;;;;;;4995813;28;20185;-70
2021/03/11 08:28:20;;;;;;;5.73;2.60;;;;;;;;;;5012635;28;20216;-70
2021/03/11 08:30:50;;;;;;;3.50;2.37;;;;;;;;;;5013634;28;20205;-71
2021/03/11 08:33:21;;;;;;;3.63;2.40;;;;;;;;;;5012484;28;20177;-71
2021/03/11 08:35:51;;;;;;;2.50;2.30;;;;;;;;;;5013853;28;20198;-70
2021/03/11 08:38:20;;;;;;;3.83;2.37;;;;;;;;;;4987506;28;20209;-71
2021/03/11 08:40:52;;;;;;;3.13;2.70;;;;;;;;;;4996373;28;20305;-70
2021/03/11 08:43:40;;;;;;;6.37;2.30;;;;;;;;;;5012095;28;20276;-71
2021/03/11 08:46:08;;;;;;;3.30;2.40;;;;;;;;;;5007975;28;20644;-71
2021/03/11 08:48:46;;;;;;;3.30;2.20;;;;;;;;;;4991874;28;20219;-71
2021/03/11 08:51:18;;;;;;;3.63;2.00;;;;;;;;;;5011022;28;20354;-71
2021/03/11 08:53:48;;;;;;;2.30;2.10;;;;;;;;;;5011828;28;20181;-71
2021/03/11 08:56:17;;;;;;;4.67;2.43;;;;;;;;;;5013710;28;20235;-71
2021/03/11 08:58:56;;;;;;;3.27;2.13;;;;;;;;;;5011891;28;20192;-71
2021/03/11 09:01:37;;;;;;;3.63;2.40;;;;;;;;;;5016387;28;20215;-70
2021/03/11 09:04:04;;;;;;;4.13;2.30;;;;;;;;;;4994361;28;20268;-70
2021/03/11 09:06:49;;;;;;;4.22;2.03;;;;;;;;;;4994134;28;20304;-71
2021/03/11 09:09:15;;;;;;;3.22;1.80;;;;;;;;;;4995630;28;20649;-70
2021/03/11 09:11:53;;;;;;;3.28;2.05;;;;;;;;;;5012349;28;20782;-71
2021/03/11 09:14:21;;;;;;;3.63;1.77;;;;;;;;;;5013384;28;20191;-71
2021/03/11 09:16:47;;;;;;;3.42;2.08;;;;;;;;;;4994207;28;20557;-71
2021/03/11 09:19:14;;;;;;;1.92;1.65;;;;;;;;;;5013040;28;20196;-70
2021/03/11 09:21:40;;;;;;;2.38;1.70;;;;;;;;;;4994214;28;20283;-70
2021/03/11 09:24:15;;;;;;;3.55;1.95;;;;;;;;;;5017638;28;20176;-70
2021/03/11 09:26:41;;;;;;;6.68;2.20;;;;;;;;;;5010467;28;20183;-71
2021/03/11 09:29:07;;;;;;;1.88;1.67;;;;;;;;;;5013112;28;20618;-70
2021/03/11 09:31:33;;;;;;;4.75;1.95;;;;;;;;;;5013817;28;20215;-70
2021/03/11 09:34:01;;;;;;;2.10;1.90;;;;;;;;;;4996998;28;20216;-70
2021/03/11 09:36:27;;;;;;;2.85;1.90;;;;;;;;;;5010216;28;20260;-70
2021/03/11 09:38:59;;;;;;;3.13;1.90;;;;;;;;;;5019419;28;20617;-71
2021/03/11 09:41:26;;;;;;;2.35;1.95;;;;;;;;;;4990999;28;20200;-70
2021/03/11 09:43:53;;;;;;;3.50;1.85;;;;;;;;;;4995826;28;20181;-71
2021/03/11 09:46:24;;;;;;;3.20;1.77;;;;;;;;;;5011036;28;20263;-71
2021/03/11 09:48:52;;;;;;;1.67;1.45;;;;;;;;;;4984564;28;20266;-71
2021/03/11 09:51:18;;;;;;;2.50;1.58;;;;;;;;;;5009824;28;20196;-70
2021/03/11 09:53:46;;;;;;;3.10;1.52;;;;;;;;;;4996835;28;20173;-70
2021/03/11 09:56:12;;;;;;;1.90;1.80;;;;;;;;;;5013526;28;20267;-73
2021/03/11 09:58:44;;;;;;;1.60;1.50;;;;;;;;;;5007761;28;20264;-72
2021/03/11 10:01:11;;;;;;;2.45;1.50;;;;;;;;;;4991109;28;20626;-73
2021/03/11 10:03:37;;;;;;;1.50;1.40;;;;;;;;;;4992325;28;20181;-73
2021/03/11 10:06:05;;;;;;;1.60;1.42;;;;;;;;;;5010966;28;20195;-73
2021/03/11 10:08:35;;;;;;;1.70;1.60;;;;;;;;;;5012492;28;20264;-72
2021/03/11 10:11:03;;;;;;;4.38;1.30;;;;;;;;;;5009463;28;20216;-73
2021/03/11 10:13:36;;;;;;;2.58;1.60;;;;;;;;;;5009281;28;20220;-72
2021/03/11 10:16:02;;;;;;;1.50;1.40;;;;;;;;;;4993163;28;20185;-71
2021/03/11 10:18:28;;;;;;;3.22;1.27;;;;;;;;;;5010163;28;20189;-73
2021/03/11 10:21:10;;;;;;;2.00;1.60;;;;;;;;;;4997754;28;20212;-71
2021/03/11 10:23:38;;;;;;;5.22;1.52;;;;;;;;;;5010810;28;20188;-70
2021/03/11 10:26:14;;;;;;;3.58;1.45;;;;;;;;;;4992990;28;20192;-73
2021/03/11 10:28:41;;;;;;;1.50;1.20;;;;;;;;;;5011076;28;20693;-72
2021/03/11 10:31:07;;;;;;;3.25;1.83;;;;;;;;;;5008517;28;20241;-70
2021/03/11 10:33:34;;;;;;;1.60;1.50;;;;;;;;;;4995605;28;20792;-73
2021/03/11 10:36:10;;;;;;;2.47;1.40;;;;;;;;;;5016800;28;20237;-74
2021/03/11 10:38:36;;;;;;;1.30;1.20;;;;;;;;;;5012487;28;20176;-73
2021/03/11 10:41:12;;;;;;;1.48;1.30;;;;;;;;;;5011969;28;20341;-73
2021/03/11 10:43:39;;;;;;;1.27;1.17;;;;;;;;;;5013928;28;20248;-72
2021/03/11 10:46:05;;;;;;;1.38;1.00;;;;;;;;;;5006378;28;20177;-72
2021/03/11 10:48:45;;;;;;;1.58;1.23;;;;;;;;;;5009480;28;20209;-72
2021/03/11 10:51:16;;;;;;;2.90;1.40;;;;;;;;;;5011572;28;20683;-73
2021/03/11 10:53:42;;;;;;;4.97;1.40;;;;;;;;;;5009772;28;20674;-72
2021/03/11 10:56:08;;;;;;;4.38;1.33;;;;;;;;;;5008607;28;20300;-73
2021/03/11 10:58:35;;;;;;;1.58;1.45;;;;;;;;;;5005078;28;20687;-72
2021/03/11 11:01:07;;;;;;;0.93;0.93;;;;;;;;;;5010959;28;20675;-74
2021/03/11 11:03:33;;;;;;;1.30;1.20;;;;;;;;;;5010222;28;20181;-73
2021/03/11 11:05:59;;;;;;;1.40;1.30;;;;;;;;;;5003179;28;20258;-73
2021/03/11 11:08:25;;;;;;;1.73;1.42;;;;;;;;;;5011770;28;21555;-73
2021/03/11 11:10:51;;;;;;;2.05;1.13;;;;;;;;;;5009628;28;20208;-73
2021/03/11 11:13:17;;;;;;;3.72;1.52;;;;;;;;;;5006166;28;20667;-73
2021/03/11 11:15:43;;;;;;;3.70;1.40;;;;;;;;;;5009483;28;20193;-73
2021/03/11 11:18:09;;;;;;;1.90;1.15;;;;;;;;;;5012201;28;20326;-72
2021/03/11 11:20:36;;;;;;;2.30;1.20;;;;;;;;;;5011345;28;20213;-71
2021/03/11 11:23:03;;;;;;;1.10;1.10;;;;;;;;;;5008714;28;20184;-73
2021/03/11 11:25:29;;;;;;;2.95;1.10;;;;;;;;;;5007169;28;20651;-73
2021/03/11 11:27:55;;;;;;;2.08;1.17;;;;;;;;;;5010337;28;20188;-73
2021/03/11 11:30:21;;;;;;;1.77;1.40;;;;;;;;;;5008836;28;20201;-72
2021/03/11 11:32:47;;;;;;;2.13;1.25;;;;;;;;;;5011781;28;20609;-73
2021/03/11 11:35:15;;;;;;;1.45;1.25;;;;;;;;;;4995877;28;20277;-73
2021/03/11 11:37:41;;;;;;;3.35;1.60;;;;;;;;;;4999522;28;20188;-74
2021/03/11 11:40:08;;;;;;;1.33;1.20;;;;;;;;;;4991224;28;20192;-72
2021/03/11 11:42:34;;;;;;;1.20;1.13;;;;;;;;;;4984876;28;20185;-73
2021/03/11 11:45:00;;;;;;;2.42;1.20;;;;;;;;;;5011601;28;20196;-70
2021/03/11 11:47:26;;;;;;;1.25;1.15;;;;;;;;;;5012514;28;20636;-72
2021/03/11 11:49:52;;;;;;;2.97;1.13;;;;;;;;;;4991384;28;20239;-72
2021/03/11 11:52:18;;;;;;;1.30;1.27;;;;;;;;;;4993280;28;20552;-73
2021/03/11 11:54:44;;;;;;;1.60;1.50;;;;;;;;;;5011983;28;20188;-73
2021/03/11 11:57:10;;;;;;;1.20;1.20;;;;;;;;;;5009858;28;20184;-72
2021/03/11 11:59:36;;;;;;;2.87;1.63;;;;;;;;;;4991588;28;20756;-72
2021/03/11 12:02:02;;;;;;;3.17;1.40;;;;;;;;;;5011617;28;20228;-73
2021/03/11 12:04:29;;;;;;;1.63;1.30;;;;;;;;;;5011502;28;20184;-73
2021/03/11 12:06:55;;;;;;;1.53;1.43;;;;;;;;;;4989576;28;20262;-74
2021/03/11 12:09:21;;;;;;;4.30;1.50;;;;;;;;;;5005563;28;20213;-70
2021/03/11 12:11:48;;;;;;;2.10;1.50;;;;;;;;;;5005437;28;20189;-73
2021/03/11 12:14:14;;;;;;;2.50;1.60;;;;;;;;;;5008573;28;20185;-71
2021/03/11 12:16:40;;;;;;;2.10;1.60;;;;;;;;;;4993623;28;20196;-72
2021/03/11 12:19:06;;;;;;;3.20;1.80;;;;;;;;;;4999368;28;20196;-71
2021/03/11 12:21:32;;;;;;;1.40;1.30;;;;;;;;;;4991346;28;20663;-73
2021/03/11 12:23:59;;;;;;;2.20;1.63;;;;;;;;;;5005826;28;20220;-71
2021/03/11 12:26:24;;;;;;;1.45;1.35;;;;;;;;;;4996540;28;20189;-71
2021/03/11 12:28:51;;;;;;;1.50;1.40;;;;;;;;;;5013911;28;20225;-70
2021/03/11 12:31:17;;;;;;;1.88;1.30;;;;;;;;;;4991852;28;20204;-71
2021/03/11 12:33:43;;;;;;;1.38;1.27;;;;;;;;;;4992408;28;20238;-71
2021/03/11 12:36:10;;;;;;;2.13;1.08;;;;;;;;;;4993266;28;20238;-74
2021/03/11 12:38:40;;;;;;;1.58;1.45;;;;;;;;;;5010082;28;20189;-72
2021/03/11 12:41:06;;;;;;;2.03;1.30;;;;;;;;;;5012901;28;20207;-72
2021/03/11 12:43:32;;;;;;;2.03;1.48;;;;;;;;;;4992142;28;20197;-74
2021/03/11 12:45:58;;;;;;;3.40;1.20;;;;;;;;;;5005155;28;20297;-71
2021/03/11 12:48:24;;;;;;;2.30;1.20;;;;;;;;;;5004773;28;20204;-72
2021/03/11 12:50:50;;;;;;;1.60;1.50;;;;;;;;;;5009755;28;20311;-71
2021/03/11 12:53:17;;;;;;;2.38;1.20;;;;;;;;;;5006067;28;20801;-71
2021/03/11 12:55:43;;;;;;;1.50;1.40;;;;;;;;;;5001154;28;20205;-71
2021/03/11 12:58:09;;;;;;;2.05;1.40;;;;;;;;;;5010553;28;20235;-71
2021/03/11 13:00:36;;;;;;;1.42;1.27;;;;;;;;;;5016689;28;20204;-71
2021/03/11 13:03:02;;;;;;;1.33;1.20;;;;;;;;;;5011929;28;20195;-71
2021/03/11 13:05:29;;;;;;;1.67;1.58;;;;;;;;;;4995583;28;20556;-71
2021/03/11 13:07:55;;;;;;;1.33;1.23;;;;;;;;;;4992656;28;20242;-71
2021/03/11 13:10:21;;;;;;;1.85;1.15;;;;;;;;;;5013589;28;20229;-71
2021/03/11 13:12:47;;;;;;;1.27;1.17;;;;;;;;;;5005129;28;20209;-70
2021/03/11 13:15:13;;;;;;;1.60;1.50;;;;;;;;;;5011045;28;20239;-71
2021/03/11 13:17:39;;;;;;;1.40;1.30;;;;;;;;;;5011601;28;20254;-74
2021/03/11 13:20:06;;;;;;;1.15;1.13;;;;;;;;;;4994808;28;20421;-73
2021/03/11 13:22:33;;;;;;;2.10;1.25;;;;;;;;;;4997315;28;20246;-71
2021/03/11 13:24:59;;;;;;;2.05;1.40;;;;;;;;;;5009615;28;20265;-73
2021/03/11 13:27:25;;;;;;;3.03;1.48;;;;;;;;;;4987653;28;20275;-72
2021/03/11 13:29:51;;;;;;;1.58;1.48;;;;;;;;;;5010414;28;20260;-74
2021/03/11 13:32:17;;;;;;;2.92;1.30;;;;;;;;;;5011938;28;20189;-74
2021/03/11 13:34:43;;;;;;;1.67;1.23;;;;;;;;;;5014177;28;20183;-74
2021/03/11 13:37:09;;;;;;;1.48;1.33;;;;;;;;;;5006016;28;20268;-74
2021/03/11 13:39:35;;;;;;;1.77;1.30;;;;;;;;;;4991240;28;20588;-73
2021/03/11 13:42:01;;;;;;;2.25;1.20;;;;;;;;;;4997063;28;20187;-74
2021/03/11 13:44:27;;;;;;;1.38;1.27;;;;;;;;;;5007919;28;20187;-75
2021/03/11 13:46:53;;;;;;;1.38;1.27;;;;;;;;;;5012948;28;20190;-73
2021/03/11 13:49:19;;;;;;;1.38;1.10;;;;;;;;;;5012849;28;20258;-74
2021/03/11 13:51:45;;;;;;;1.48;1.30;;;;;;;;;;4991511;28;20181;-73
2021/03/11 13:54:11;;;;;;;1.30;1.20;;;;;;;;;;5007490;28;20211;-74
2021/03/11 13:56:38;;;;;;;1.25;1.10;;;;;;;;;;5003951;28;20189;-74
2021/03/11 13:59:04;;;;;;;2.45;1.17;;;;;;;;;;4993357;28;20181;-73
2021/03/11 14:01:30;;;;;;;1.80;1.35;;;;;;;;;;5008613;28;20208;-74
2021/03/11 14:03:56;;;;;;;1.65;1.17;;;;;;;;;;5009069;28;20185;-74
2021/03/11 14:06:23;;;;;;;1.88;1.20;;;;;;;;;;5005192;28;20189;-74
2021/03/11 14:08:49;;;;;;;1.65;1.10;;;;;;;;;;5005284;28;20201;-74
2021/03/11 14:11:15;;;;;;;1.38;1.27;;;;;;;;;;5010236;28;20212;-73
2021/03/11 14:13:41;;;;;;;1.40;1.10;;;;;;;;;;5007538;28;20181;-73
2021/03/11 14:16:07;;;;;;;1.45;1.35;;;;;;;;;;4993635;28;20234;-72
2021/03/11 14:18:33;;;;;;;1.67;1.20;;;;;;;;;;5010788;28;20234;-74
2021/03/11 14:20:59;;;;;;;1.50;1.00;;;;;;;;;;5007228;28;20291;-72
2021/03/11 14:23:25;;;;;;;1.65;1.27;;;;;;;;;;5006410;28;20664;-73
2021/03/11 14:25:51;;;;;;;1.77;1.20;;;;;;;;;;4989481;28;20189;-73
2021/03/11 14:28:18;;;;;;;1.17;1.10;;;;;;;;;;5013043;28;20230;-73
2021/03/11 14:30:44;;;;;;;1.40;1.30;;;;;;;;;;5009520;28;20284;-73
2021/03/11 14:33:11;;;;;;;1.10;1.10;;;;;;;;;;5012638;28;20181;-74
2021/03/11 14:35:37;;;;;;;1.33;1.23;;;;;;;;;;5010610;28;20268;-73
2021/03/11 14:38:03;;;;;;;2.72;1.15;;;;;;;;;;5007691;28;20193;-73
2021/03/11 14:40:29;;;;;;;1.25;1.15;;;;;;;;;;5007845;28;20656;-74
2021/03/11 14:42:55;;;;;;;1.27;1.10;;;;;;;;;;5010076;28;20259;-74
2021/03/11 14:45:22;;;;;;;1.77;1.58;;;;;;;;;;5004719;28;20211;-73